LHA871 EDDF-LFMN
Flight info
| Callsign | LHA871 |
|---|---|
| Flight time | 1h 17m |
| Altitude | 41000 |
| Route | ANEKI2L/18 ANEKI Y163 NATOR DCT TRA DCT RIPUS DCT GERSA DCT SOSON DCT ODINA DCT ENOBA/N0359F190 Z185 BORDI |
| Aircraft | B737/M-SDE1E2FGIJ1RWYZE3/S |
Departure
| Time | 2026-04-15 09:58 |
|---|---|
| Airport | Frankfurt Main Airport (EDDF) |
Arrival
| Time | 2026-04-15 11:16 |
|---|---|
| Airport | Nice-Côte d'Azur Airport (LFMN) |
| Time | Latitude | Longitude | Altitude | Speed | Heading |
|---|---|---|---|---|---|
| 2026-04-15 09:08 | 50.04453 | 8.56431 | 355 ft | 0 kts | 154° |
| 2026-04-15 09:47 | 50.04464 | 8.56422 | 355 ft | 4 kts | 154° |
| 2026-04-15 09:47 | 50.04489 | 8.56405 | 361 ft | 4 kts | 160° |
| 2026-04-15 09:47 | 50.04513 | 8.56397 | 355 ft | 4 kts | 201° |
| 2026-04-15 09:48 | 50.04522 | 8.56406 | 355 ft | 1 kts | 250° |
| 2026-04-15 09:48 | 50.04515 | 8.56375 | 355 ft | 1 kts | 250° |
| 2026-04-15 09:51 | 50.04493 | 8.56289 | 357 ft | 16 kts | 249° |
| 2026-04-15 09:52 | 50.04452 | 8.56117 | 355 ft | 17 kts | 250° |
| 2026-04-15 09:52 | 50.04380 | 8.56035 | 358 ft | 14 kts | 168° |
| 2026-04-15 09:52 | 50.04290 | 8.56062 | 354 ft | 13 kts | 200° |
| 2026-04-15 09:52 | 50.04240 | 8.55947 | 356 ft | 14 kts | 249° |
| 2026-04-15 09:53 | 50.04200 | 8.55778 | 352 ft | 21 kts | 249° |
| 2026-04-15 09:53 | 50.04144 | 8.55544 | 350 ft | 24 kts | 249° |
| 2026-04-15 09:53 | 50.04089 | 8.55310 | 355 ft | 23 kts | 250° |
| 2026-04-15 09:53 | 50.04034 | 8.55085 | 354 ft | 22 kts | 249° |
| 2026-04-15 09:54 | 50.03982 | 8.54864 | 353 ft | 21 kts | 249° |
| 2026-04-15 09:54 | 50.03931 | 8.54650 | 354 ft | 21 kts | 250° |
| 2026-04-15 09:54 | 50.03882 | 8.54443 | 346 ft | 20 kts | 249° |
| 2026-04-15 09:54 | 50.03811 | 8.54260 | 346 ft | 19 kts | 242° |
| 2026-04-15 09:55 | 50.03762 | 8.54067 | 351 ft | 19 kts | 250° |
| 2026-04-15 09:55 | 50.03717 | 8.53877 | 353 ft | 18 kts | 249° |
| 2026-04-15 09:55 | 50.03673 | 8.53695 | 339 ft | 18 kts | 249° |
| 2026-04-15 09:55 | 50.03629 | 8.53519 | 338 ft | 17 kts | 249° |
| 2026-04-15 09:56 | 50.03588 | 8.53348 | 337 ft | 17 kts | 250° |
| 2026-04-15 09:56 | 50.03548 | 8.53184 | 334 ft | 16 kts | 249° |
| 2026-04-15 09:56 | 50.03474 | 8.52874 | 332 ft | 15 kts | 249° |
| 2026-04-15 09:57 | 50.03434 | 8.52732 | 335 ft | 14 kts | 248° |
| 2026-04-15 09:57 | 50.03381 | 8.52612 | 331 ft | 13 kts | 211° |
| 2026-04-15 09:57 | 50.03292 | 8.52594 | 332 ft | 14 kts | 179° |
| 2026-04-15 09:57 | 50.02953 | 8.52599 | 332 ft | 87 kts | 180° |
| 2026-04-15 09:58 | 50.02121 | 8.52610 | 333 ft | 149 kts | 179° |
| 2026-04-15 09:58 | 50.00991 | 8.52603 | 830 ft | 159 kts | 179° |
| 2026-04-15 09:58 | 49.99934 | 8.52659 | 1819 ft | 149 kts | 173° |
| 2026-04-15 09:58 | 49.98868 | 8.52750 | 2582 ft | 162 kts | 176° |
| 2026-04-15 09:59 | 49.97620 | 8.52822 | 2981 ft | 198 kts | 176° |
| 2026-04-15 09:59 | 49.96133 | 8.52918 | 3397 ft | 227 kts | 175° |
| 2026-04-15 09:59 | 49.94559 | 8.53020 | 3944 ft | 228 kts | 175° |
| 2026-04-15 09:59 | 49.92981 | 8.53124 | 4034 ft | 232 kts | 175° |
| 2026-04-15 10:00 | 49.91359 | 8.53233 | 4764 ft | 233 kts | 175° |
| 2026-04-15 10:00 | 49.89743 | 8.53345 | 5975 ft | 228 kts | 176° |
| 2026-04-15 10:00 | 49.88176 | 8.53454 | 7023 ft | 230 kts | 178° |
| 2026-04-15 10:00 | 49.86540 | 8.53565 | 7903 ft | 239 kts | 177° |
| 2026-04-15 10:01 | 49.84869 | 8.53681 | 8977 ft | 243 kts | 178° |
| 2026-04-15 10:01 | 49.83167 | 8.53800 | 10051 ft | 248 kts | 178° |
| 2026-04-15 10:01 | 49.81504 | 8.53915 | 10953 ft | 253 kts | 179° |
| 2026-04-15 10:01 | 49.79730 | 8.54039 | 11937 ft | 258 kts | 178° |
| 2026-04-15 10:02 | 49.77919 | 8.54153 | 12909 ft | 264 kts | 181° |
| 2026-04-15 10:02 | 49.76003 | 8.54024 | 13416 ft | 291 kts | 186° |
| 2026-04-15 10:02 | 49.73872 | 8.53724 | 13673 ft | 324 kts | 187° |
| 2026-04-15 10:02 | 49.71563 | 8.53368 | 14319 ft | 340 kts | 187° |
| 2026-04-15 10:03 | 49.69182 | 8.53010 | 15203 ft | 347 kts | 186° |
| 2026-04-15 10:03 | 49.66756 | 8.52659 | 16182 ft | 353 kts | 186° |
| 2026-04-15 10:03 | 49.64284 | 8.52314 | 17148 ft | 359 kts | 185° |
| 2026-04-15 10:03 | 49.61777 | 8.51972 | 18090 ft | 366 kts | 185° |
| 2026-04-15 10:04 | 49.59217 | 8.51628 | 18972 ft | 372 kts | 185° |
| 2026-04-15 10:04 | 49.56621 | 8.51282 | 19835 ft | 377 kts | 185° |
| 2026-04-15 10:04 | 49.53996 | 8.50931 | 20753 ft | 381 kts | 185° |
| 2026-04-15 10:04 | 49.51339 | 8.50580 | 21609 ft | 385 kts | 185° |
| 2026-04-15 10:05 | 49.48654 | 8.50228 | 22436 ft | 391 kts | 185° |
| 2026-04-15 10:05 | 49.45920 | 8.49869 | 23261 ft | 396 kts | 185° |
| 2026-04-15 10:05 | 49.43350 | 8.49531 | 23988 ft | 401 kts | 185° |
| 2026-04-15 10:05 | 49.40531 | 8.49160 | 24600 ft | 408 kts | 185° |
| 2026-04-15 10:06 | 49.37680 | 8.48785 | 25188 ft | 415 kts | 185° |
| 2026-04-15 10:06 | 49.34782 | 8.48404 | 25781 ft | 421 kts | 185° |
| 2026-04-15 10:06 | 49.31846 | 8.48019 | 26379 ft | 427 kts | 186° |
| 2026-04-15 10:06 | 49.28867 | 8.47632 | 26968 ft | 432 kts | 186° |
| 2026-04-15 10:07 | 49.25848 | 8.47247 | 27537 ft | 438 kts | 186° |
| 2026-04-15 10:07 | 49.22795 | 8.46862 | 28096 ft | 444 kts | 186° |
| 2026-04-15 10:07 | 49.19690 | 8.46471 | 28613 ft | 450 kts | 186° |
| 2026-04-15 10:07 | 49.16547 | 8.46075 | 29122 ft | 456 kts | 186° |
| 2026-04-15 10:08 | 49.13361 | 8.45672 | 29645 ft | 462 kts | 186° |
| 2026-04-15 10:08 | 49.10498 | 8.45314 | 30106 ft | 466 kts | 186° |
| 2026-04-15 10:08 | 49.07250 | 8.44899 | 30554 ft | 471 kts | 187° |
| 2026-04-15 10:08 | 49.04009 | 8.44114 | 30977 ft | 473 kts | 194° |
| 2026-04-15 10:09 | 49.00827 | 8.43005 | 31429 ft | 477 kts | 195° |
| 2026-04-15 10:09 | 48.97590 | 8.41813 | 31841 ft | 481 kts | 195° |
| 2026-04-15 10:09 | 48.94328 | 8.40613 | 32220 ft | 485 kts | 195° |
| 2026-04-15 10:09 | 48.91031 | 8.39425 | 32609 ft | 488 kts | 195° |
| 2026-04-15 10:10 | 48.87669 | 8.38241 | 32982 ft | 492 kts | 195° |
| 2026-04-15 10:10 | 48.84367 | 8.37094 | 33317 ft | 495 kts | 195° |
| 2026-04-15 10:10 | 48.81012 | 8.35933 | 33685 ft | 497 kts | 195° |
| 2026-04-15 10:10 | 48.77631 | 8.34757 | 34173 ft | 496 kts | 195° |
| 2026-04-15 10:11 | 48.74275 | 8.33554 | 34597 ft | 496 kts | 195° |
| 2026-04-15 10:11 | 48.70928 | 8.32329 | 34980 ft | 496 kts | 195° |
| 2026-04-15 10:11 | 48.67577 | 8.31097 | 35399 ft | 494 kts | 195° |
| 2026-04-15 10:11 | 48.64239 | 8.29876 | 35835 ft | 493 kts | 195° |
| 2026-04-15 10:12 | 48.60903 | 8.28663 | 36226 ft | 492 kts | 195° |
| 2026-04-15 10:12 | 48.57576 | 8.27458 | 36592 ft | 492 kts | 195° |
| 2026-04-15 10:12 | 48.54253 | 8.26261 | 36991 ft | 491 kts | 195° |
| 2026-04-15 10:12 | 48.50906 | 8.25243 | 37378 ft | 491 kts | 188° |
| 2026-04-15 10:13 | 48.47504 | 8.24930 | 37727 ft | 492 kts | 179° |
| 2026-04-15 10:13 | 48.44091 | 8.25379 | 38059 ft | 491 kts | 170° |
| 2026-04-15 10:13 | 48.40727 | 8.26227 | 38463 ft | 489 kts | 169° |
| 2026-04-15 10:13 | 48.37381 | 8.27114 | 38845 ft | 488 kts | 169° |
| 2026-04-15 10:14 | 48.34034 | 8.27988 | 39153 ft | 488 kts | 169° |
| 2026-04-15 10:14 | 48.30692 | 8.28827 | 39455 ft | 487 kts | 170° |
| 2026-04-15 10:14 | 48.27352 | 8.29638 | 39767 ft | 485 kts | 170° |
| 2026-04-15 10:14 | 48.24031 | 8.30428 | 40080 ft | 483 kts | 170° |
| 2026-04-15 10:15 | 48.20711 | 8.31216 | 40354 ft | 482 kts | 171° |
| 2026-04-15 10:15 | 48.17408 | 8.32001 | 40633 ft | 481 kts | 171° |
| 2026-04-15 10:15 | 48.14110 | 8.32793 | 40917 ft | 479 kts | 170° |
| 2026-04-15 10:15 | 48.10821 | 8.33592 | 41181 ft | 478 kts | 170° |
| 2026-04-15 10:16 | 48.07520 | 8.34398 | 41225 ft | 483 kts | 170° |
| 2026-04-15 10:16 | 48.00881 | 8.36016 | 41226 ft | 483 kts | 170° |
| 2026-04-15 10:17 | 47.94291 | 8.37613 | 41221 ft | 477 kts | 170° |
| 2026-04-15 10:17 | 47.88861 | 8.38924 | 41221 ft | 475 kts | 170° |
| 2026-04-15 10:18 | 47.82354 | 8.40493 | 41228 ft | 473 kts | 170° |
| 2026-04-15 10:18 | 47.75861 | 8.42054 | 41223 ft | 472 kts | 170° |
| 2026-04-15 10:19 | 47.69367 | 8.43610 | 41232 ft | 473 kts | 171° |
| 2026-04-15 10:19 | 47.62806 | 8.44754 | 41243 ft | 476 kts | 174° |
| 2026-04-15 10:20 | 47.56183 | 8.45639 | 41244 ft | 480 kts | 174° |
| 2026-04-15 10:20 | 47.49515 | 8.46565 | 41248 ft | 483 kts | 174° |
| 2026-04-15 10:21 | 47.42814 | 8.47542 | 41242 ft | 485 kts | 174° |
| 2026-04-15 10:21 | 47.36075 | 8.48531 | 41245 ft | 487 kts | 174° |
| 2026-04-15 10:22 | 47.29325 | 8.49516 | 41235 ft | 488 kts | 174° |
| 2026-04-15 10:22 | 47.22563 | 8.50499 | 41226 ft | 488 kts | 174° |
| 2026-04-15 10:23 | 47.15816 | 8.51477 | 41224 ft | 487 kts | 174° |
| 2026-04-15 10:23 | 47.09356 | 8.52412 | 41221 ft | 485 kts | 174° |
| 2026-04-15 10:24 | 47.02597 | 8.53387 | 41210 ft | 485 kts | 174° |
| 2026-04-15 10:24 | 46.95929 | 8.54349 | 41194 ft | 484 kts | 174° |
| 2026-04-15 10:25 | 46.89218 | 8.55317 | 41190 ft | 485 kts | 174° |
| 2026-04-15 10:25 | 46.82506 | 8.56281 | 41176 ft | 484 kts | 174° |
| 2026-04-15 10:26 | 46.75811 | 8.57241 | 41194 ft | 484 kts | 173° |
| 2026-04-15 10:26 | 46.69120 | 8.58199 | 41179 ft | 482 kts | 174° |
| 2026-04-15 10:27 | 46.62446 | 8.59151 | 41167 ft | 482 kts | 173° |
| 2026-04-15 10:27 | 46.55777 | 8.60100 | 41157 ft | 481 kts | 173° |
| 2026-04-15 10:28 | 46.49114 | 8.61045 | 41176 ft | 480 kts | 173° |
| 2026-04-15 10:28 | 46.42458 | 8.61989 | 41167 ft | 481 kts | 174° |
| 2026-04-15 10:29 | 46.35788 | 8.62931 | 41168 ft | 483 kts | 174° |
| 2026-04-15 10:29 | 46.29109 | 8.63873 | 41127 ft | 482 kts | 173° |
| 2026-04-15 10:30 | 46.22443 | 8.64811 | 41152 ft | 483 kts | 173° |
| 2026-04-15 10:30 | 46.15742 | 8.65752 | 41143 ft | 484 kts | 173° |
| 2026-04-15 10:31 | 46.09014 | 8.66316 | 41151 ft | 487 kts | 184° |
| 2026-04-15 10:31 | 46.02303 | 8.65039 | 41171 ft | 487 kts | 189° |
| 2026-04-15 10:32 | 45.95591 | 8.63542 | 41164 ft | 488 kts | 189° |
| 2026-04-15 10:32 | 45.88862 | 8.62097 | 41163 ft | 489 kts | 188° |
| 2026-04-15 10:33 | 45.82119 | 8.60710 | 41154 ft | 489 kts | 188° |
| 2026-04-15 10:33 | 45.75754 | 8.59421 | 41161 ft | 489 kts | 188° |
| 2026-04-15 10:34 | 45.69026 | 8.58062 | 41185 ft | 488 kts | 188° |
| 2026-04-15 10:34 | 45.62296 | 8.56703 | 41183 ft | 488 kts | 188° |
| 2026-04-15 10:35 | 45.55576 | 8.55347 | 41183 ft | 487 kts | 188° |
| 2026-04-15 10:35 | 45.48868 | 8.53997 | 41183 ft | 487 kts | 188° |
| 2026-04-15 10:36 | 45.42433 | 8.52705 | 41180 ft | 486 kts | 188° |
| 2026-04-15 10:36 | 45.35680 | 8.51353 | 41173 ft | 486 kts | 188° |
| 2026-04-15 10:37 | 45.28988 | 8.50016 | 41170 ft | 485 kts | 188° |
| 2026-04-15 10:37 | 45.22294 | 8.48681 | 41163 ft | 486 kts | 188° |
| 2026-04-15 10:38 | 45.15602 | 8.47351 | 41168 ft | 486 kts | 188° |
| 2026-04-15 10:38 | 45.08912 | 8.46024 | 41175 ft | 486 kts | 187° |
| 2026-04-15 10:39 | 45.02215 | 8.44698 | 41171 ft | 486 kts | 187° |
| 2026-04-15 10:39 | 44.95510 | 8.43374 | 40892 ft | 490 kts | 187° |
| 2026-04-15 10:39 | 44.92114 | 8.42705 | 40306 ft | 492 kts | 187° |
| 2026-04-15 10:40 | 44.88726 | 8.42038 | 39702 ft | 491 kts | 187° |
| 2026-04-15 10:40 | 44.85340 | 8.41372 | 39059 ft | 492 kts | 187° |
| 2026-04-15 10:40 | 44.81945 | 8.40705 | 38271 ft | 493 kts | 187° |
| 2026-04-15 10:40 | 44.78544 | 8.40037 | 37527 ft | 493 kts | 187° |
| 2026-04-15 10:41 | 44.75160 | 8.39374 | 36794 ft | 493 kts | 187° |
| 2026-04-15 10:41 | 44.71756 | 8.38709 | 36063 ft | 494 kts | 186° |
| 2026-04-15 10:41 | 44.68328 | 8.38039 | 35219 ft | 497 kts | 186° |
| 2026-04-15 10:41 | 44.64890 | 8.37368 | 34372 ft | 501 kts | 186° |
| 2026-04-15 10:42 | 44.61428 | 8.36694 | 33412 ft | 506 kts | 186° |
| 2026-04-15 10:42 | 44.57958 | 8.36018 | 32782 ft | 501 kts | 186° |
| 2026-04-15 10:42 | 44.54518 | 8.35348 | 32142 ft | 497 kts | 186° |
| 2026-04-15 10:42 | 44.51160 | 8.34695 | 31527 ft | 493 kts | 186° |
| 2026-04-15 10:43 | 44.47759 | 8.34035 | 30898 ft | 490 kts | 186° |
| 2026-04-15 10:43 | 44.44394 | 8.33382 | 30302 ft | 486 kts | 186° |
| 2026-04-15 10:43 | 44.41058 | 8.32735 | 29615 ft | 482 kts | 186° |
| 2026-04-15 10:43 | 44.37753 | 8.32096 | 28940 ft | 477 kts | 186° |
| 2026-04-15 10:44 | 44.34493 | 8.31436 | 28322 ft | 470 kts | 190° |
| 2026-04-15 10:44 | 44.31418 | 8.29987 | 27696 ft | 465 kts | 208° |
| 2026-04-15 10:44 | 44.28768 | 8.27508 | 27057 ft | 455 kts | 223° |
| 2026-04-15 10:44 | 44.26677 | 8.24286 | 26409 ft | 445 kts | 238° |
| 2026-04-15 10:45 | 44.24964 | 8.20736 | 25819 ft | 438 kts | 239° |
| 2026-04-15 10:45 | 44.23278 | 8.17221 | 25209 ft | 433 kts | 238° |
| 2026-04-15 10:45 | 44.21598 | 8.13759 | 24599 ft | 429 kts | 238° |
| 2026-04-15 10:45 | 44.19919 | 8.10345 | 23983 ft | 424 kts | 237° |
| 2026-04-15 10:46 | 44.18251 | 8.06991 | 23307 ft | 419 kts | 237° |
| 2026-04-15 10:46 | 44.16595 | 8.03678 | 22622 ft | 414 kts | 236° |
| 2026-04-15 10:46 | 44.14962 | 8.00417 | 22019 ft | 407 kts | 236° |
| 2026-04-15 10:46 | 44.13353 | 7.97206 | 21415 ft | 402 kts | 236° |
| 2026-04-15 10:47 | 44.11764 | 7.94039 | 20773 ft | 397 kts | 236° |
| 2026-04-15 10:47 | 44.10195 | 7.90909 | 20186 ft | 392 kts | 236° |
| 2026-04-15 10:47 | 44.08644 | 7.87821 | 19609 ft | 387 kts | 236° |
| 2026-04-15 10:47 | 44.07113 | 7.84771 | 19027 ft | 383 kts | 236° |
| 2026-04-15 10:48 | 44.05593 | 7.81744 | 18444 ft | 380 kts | 236° |
| 2026-04-15 10:48 | 44.03943 | 7.78935 | 18100 ft | 371 kts | 225° |
| 2026-04-15 10:48 | 44.01950 | 7.76749 | 17827 ft | 362 kts | 213° |
| 2026-04-15 10:48 | 43.99745 | 7.75106 | 17581 ft | 360 kts | 205° |
| 2026-04-15 10:49 | 43.97450 | 7.73637 | 17316 ft | 366 kts | 204° |
| 2026-04-15 10:49 | 43.95129 | 7.72157 | 17054 ft | 368 kts | 204° |
| 2026-04-15 10:49 | 43.92812 | 7.70669 | 16802 ft | 366 kts | 205° |
| 2026-04-15 10:49 | 43.90512 | 7.69182 | 16535 ft | 363 kts | 205° |
| 2026-04-15 10:50 | 43.88232 | 7.67702 | 16286 ft | 361 kts | 205° |
| 2026-04-15 10:50 | 43.85960 | 7.66224 | 16032 ft | 360 kts | 205° |
| 2026-04-15 10:50 | 43.83694 | 7.64749 | 15785 ft | 359 kts | 205° |
| 2026-04-15 10:50 | 43.81442 | 7.63284 | 15537 ft | 357 kts | 205° |
| 2026-04-15 10:51 | 43.79196 | 7.61825 | 15283 ft | 357 kts | 205° |
| 2026-04-15 10:51 | 43.76946 | 7.60365 | 15043 ft | 356 kts | 205° |
| 2026-04-15 10:51 | 43.74740 | 7.58936 | 14800 ft | 355 kts | 204° |
| 2026-04-15 10:51 | 43.72390 | 7.57948 | 14521 ft | 353 kts | 184° |
| 2026-04-15 10:52 | 43.69973 | 7.58256 | 14302 ft | 349 kts | 161° |
| 2026-04-15 10:52 | 43.67945 | 7.59626 | 14093 ft | 344 kts | 141° |
| 2026-04-15 10:52 | 43.66280 | 7.61932 | 13862 ft | 338 kts | 123° |
| 2026-04-15 10:52 | 43.65215 | 7.64787 | 13609 ft | 333 kts | 109° |
| 2026-04-15 10:53 | 43.64418 | 7.67779 | 13343 ft | 332 kts | 107° |
| 2026-04-15 10:53 | 43.63673 | 7.70787 | 13077 ft | 332 kts | 106° |
| 2026-04-15 10:53 | 43.62932 | 7.73800 | 12800 ft | 331 kts | 106° |
| 2026-04-15 10:53 | 43.62184 | 7.76800 | 12565 ft | 330 kts | 107° |
| 2026-04-15 10:54 | 43.61430 | 7.79784 | 12298 ft | 329 kts | 107° |
| 2026-04-15 10:54 | 43.60669 | 7.82762 | 12038 ft | 328 kts | 107° |
| 2026-04-15 10:54 | 43.59905 | 7.85725 | 11795 ft | 327 kts | 107° |
| 2026-04-15 10:54 | 43.59143 | 7.88674 | 11539 ft | 326 kts | 107° |
| 2026-04-15 10:55 | 43.58384 | 7.91604 | 11293 ft | 325 kts | 108° |
| 2026-04-15 10:55 | 43.57615 | 7.94568 | 11045 ft | 324 kts | 108° |
| 2026-04-15 10:55 | 43.56856 | 7.97487 | 10809 ft | 322 kts | 108° |
| 2026-04-15 10:55 | 43.56094 | 8.00409 | 10567 ft | 319 kts | 108° |
| 2026-04-15 10:56 | 43.55332 | 8.03206 | 10336 ft | 312 kts | 114° |
| 2026-04-15 10:56 | 43.54038 | 8.05552 | 10225 ft | 299 kts | 138° |
| 2026-04-15 10:56 | 43.52261 | 8.06908 | 10100 ft | 289 kts | 161° |
| 2026-04-15 10:56 | 43.50337 | 8.07256 | 9992 ft | 281 kts | 182° |
| 2026-04-15 10:57 | 43.48399 | 8.06737 | 9904 ft | 281 kts | 199° |
| 2026-04-15 10:57 | 43.45650 | 8.04245 | 9748 ft | 287 kts | 221° |
| 2026-04-15 10:57 | 43.44146 | 8.02377 | 9629 ft | 290 kts | 222° |
| 2026-04-15 10:58 | 43.42633 | 8.00501 | 9515 ft | 288 kts | 221° |
| 2026-04-15 10:58 | 43.41162 | 7.98705 | 9404 ft | 287 kts | 221° |
| 2026-04-15 10:58 | 43.39661 | 7.96889 | 9286 ft | 285 kts | 222° |
| 2026-04-15 10:58 | 43.38440 | 7.94701 | 9161 ft | 282 kts | 250° |
| 2026-04-15 10:59 | 43.38131 | 7.92105 | 9101 ft | 275 kts | 276° |
| 2026-04-15 10:59 | 43.38586 | 7.89590 | 9011 ft | 270 kts | 298° |
| 2026-04-15 10:59 | 43.39509 | 7.87279 | 8931 ft | 270 kts | 303° |
| 2026-04-15 10:59 | 43.40466 | 7.85021 | 8819 ft | 273 kts | 303° |
| 2026-04-15 11:00 | 43.41427 | 7.82733 | 8720 ft | 275 kts | 303° |
| 2026-04-15 11:00 | 43.42151 | 7.80292 | 8577 ft | 278 kts | 282° |
| 2026-04-15 11:00 | 43.42392 | 7.77622 | 8523 ft | 277 kts | 278° |
| 2026-04-15 11:00 | 43.42590 | 7.74998 | 8418 ft | 277 kts | 278° |
| 2026-04-15 11:01 | 43.42792 | 7.72372 | 8313 ft | 277 kts | 279° |
| 2026-04-15 11:01 | 43.43005 | 7.69707 | 8212 ft | 277 kts | 279° |
| 2026-04-15 11:01 | 43.43223 | 7.67071 | 8111 ft | 276 kts | 279° |
| 2026-04-15 11:01 | 43.43449 | 7.64393 | 8016 ft | 276 kts | 279° |
| 2026-04-15 11:02 | 43.43673 | 7.61762 | 7917 ft | 276 kts | 279° |
| 2026-04-15 11:02 | 43.43897 | 7.59123 | 7815 ft | 276 kts | 279° |
| 2026-04-15 11:02 | 43.44057 | 7.56464 | 7714 ft | 276 kts | 270° |
| 2026-04-15 11:02 | 43.43893 | 7.53814 | 7621 ft | 276 kts | 265° |
| 2026-04-15 11:03 | 43.43633 | 7.51160 | 7513 ft | 275 kts | 264° |
| 2026-04-15 11:03 | 43.43369 | 7.48525 | 7419 ft | 274 kts | 264° |
| 2026-04-15 11:03 | 43.43124 | 7.45972 | 7324 ft | 274 kts | 264° |
| 2026-04-15 11:03 | 43.42882 | 7.43352 | 7222 ft | 273 kts | 265° |
| 2026-04-15 11:04 | 43.42648 | 7.40734 | 7118 ft | 272 kts | 265° |
| 2026-04-15 11:04 | 43.42419 | 7.38127 | 7022 ft | 272 kts | 265° |
| 2026-04-15 11:04 | 43.42220 | 7.35834 | 6937 ft | 271 kts | 265° |
| 2026-04-15 11:04 | 43.41995 | 7.33249 | 6809 ft | 272 kts | 265° |
| 2026-04-15 11:05 | 43.41768 | 7.30630 | 6666 ft | 273 kts | 265° |
| 2026-04-15 11:05 | 43.41540 | 7.28019 | 6556 ft | 272 kts | 265° |
| 2026-04-15 11:05 | 43.41315 | 7.25439 | 6451 ft | 270 kts | 265° |
| 2026-04-15 11:05 | 43.41092 | 7.22884 | 6349 ft | 269 kts | 265° |
| 2026-04-15 11:06 | 43.40868 | 7.20335 | 6237 ft | 267 kts | 265° |
| 2026-04-15 11:06 | 43.40645 | 7.17805 | 6157 ft | 265 kts | 265° |
| 2026-04-15 11:06 | 43.40422 | 7.15286 | 6067 ft | 267 kts | 266° |
| 2026-04-15 11:06 | 43.40197 | 7.12736 | 5971 ft | 270 kts | 266° |
| 2026-04-15 11:07 | 43.39969 | 7.10157 | 5871 ft | 272 kts | 266° |
| 2026-04-15 11:07 | 43.39741 | 7.07579 | 5763 ft | 271 kts | 266° |
| 2026-04-15 11:07 | 43.39513 | 7.05017 | 5674 ft | 269 kts | 266° |
| 2026-04-15 11:07 | 43.39285 | 7.02469 | 5579 ft | 268 kts | 265° |
| 2026-04-15 11:08 | 43.39204 | 6.99954 | 5465 ft | 255 kts | 283° |
| 2026-04-15 11:08 | 43.39881 | 6.97865 | 5360 ft | 229 kts | 313° |
| 2026-04-15 11:08 | 43.41029 | 6.96525 | 5241 ft | 208 kts | 332° |
| 2026-04-15 11:08 | 43.42304 | 6.95786 | 5103 ft | 192 kts | 348° |
| 2026-04-15 11:09 | 43.43587 | 6.95620 | 5021 ft | 180 kts | 359° |
| 2026-04-15 11:09 | 43.44833 | 6.95586 | 5037 ft | 182 kts | 359° |
| 2026-04-15 11:09 | 43.46070 | 6.95558 | 5038 ft | 188 kts | 0° |
| 2026-04-15 11:09 | 43.47328 | 6.96035 | 4861 ft | 192 kts | 37° |
| 2026-04-15 11:10 | 43.48304 | 6.97223 | 4627 ft | 184 kts | 41° |
| 2026-04-15 11:10 | 43.49223 | 6.98388 | 4385 ft | 177 kts | 43° |
| 2026-04-15 11:10 | 43.50105 | 6.99564 | 4177 ft | 178 kts | 44° |
| 2026-04-15 11:10 | 43.50986 | 7.00768 | 3938 ft | 179 kts | 44° |
| 2026-04-15 11:11 | 43.51866 | 7.01981 | 3699 ft | 179 kts | 44° |
| 2026-04-15 11:11 | 43.52737 | 7.03191 | 3463 ft | 178 kts | 44° |
| 2026-04-15 11:11 | 43.53616 | 7.04406 | 3230 ft | 178 kts | 45° |
| 2026-04-15 11:11 | 43.54493 | 7.05618 | 2988 ft | 179 kts | 45° |
| 2026-04-15 11:12 | 43.55367 | 7.06827 | 2750 ft | 177 kts | 44° |
| 2026-04-15 11:12 | 43.56215 | 7.08001 | 2515 ft | 167 kts | 44° |
| 2026-04-15 11:12 | 43.56762 | 7.08759 | 2385 ft | 165 kts | 44° |
| 2026-04-15 11:12 | 43.57572 | 7.09878 | 2176 ft | 169 kts | 44° |
| 2026-04-15 11:13 | 43.58388 | 7.11008 | 1968 ft | 157 kts | 44° |
| 2026-04-15 11:13 | 43.59120 | 7.12019 | 1731 ft | 141 kts | 44° |
| 2026-04-15 11:13 | 43.59790 | 7.12945 | 1534 ft | 132 kts | 44° |
| 2026-04-15 11:13 | 43.60424 | 7.13822 | 1382 ft | 129 kts | 44° |
| 2026-04-15 11:14 | 43.61067 | 7.14709 | 1210 ft | 131 kts | 46° |
| 2026-04-15 11:14 | 43.61707 | 7.15593 | 1025 ft | 129 kts | 47° |
| 2026-04-15 11:14 | 43.62340 | 7.16464 | 847 ft | 129 kts | 46° |
| 2026-04-15 11:14 | 43.62974 | 7.17346 | 680 ft | 131 kts | 47° |
| 2026-04-15 11:15 | 43.63613 | 7.18228 | 509 ft | 129 kts | 47° |
| 2026-04-15 11:15 | 43.64244 | 7.19099 | 337 ft | 128 kts | 47° |
| 2026-04-15 11:15 | 43.64875 | 7.19965 | 189 ft | 129 kts | 47° |
| 2026-04-15 11:15 | 43.65511 | 7.20849 | 29 ft | 128 kts | 48° |
| 2026-04-15 11:16 | 43.66053 | 7.21603 | 19 ft | 82 kts | 45° |
| 2026-04-15 11:16 | 43.66355 | 7.21974 | 22 ft | 40 kts | 25° |
| 2026-04-15 11:16 | 43.66482 | 7.22044 | 20 ft | 0 kts | 17° |
| 2026-04-15 11:16 | 43.66483 | 7.22045 | 20 ft | 1 kts | 17° |
| 2026-04-15 11:17 | 43.66540 | 7.22030 | 21 ft | 13 kts | 313° |
| 2026-04-15 11:17 | 43.66517 | 7.21921 | 22 ft | 13 kts | 226° |
| 2026-04-15 11:17 | 43.66454 | 7.21834 | 21 ft | 13 kts | 224° |
| 2026-04-15 11:17 | 43.66407 | 7.21770 | 20 ft | 8 kts | 225° |
| 2026-04-15 11:18 | 43.66371 | 7.21719 | 21 ft | 7 kts | 225° |
| 2026-04-15 11:18 | 43.66333 | 7.21667 | 21 ft | 8 kts | 226° |
| 2026-04-15 11:18 | 43.66330 | 7.21599 | 20 ft | 8 kts | 302° |
| 2026-04-15 11:18 | 43.66363 | 7.21544 | 21 ft | 7 kts | 310° |
| 2026-04-15 11:19 | 43.66367 | 7.21479 | 20 ft | 7 kts | 243° |
| 2026-04-15 11:19 | 43.66353 | 7.21431 | 20 ft | 4 kts | 257° |
| 2026-04-15 11:19 | 43.66345 | 7.21377 | 21 ft | 8 kts | 260° |
| 2026-04-15 11:19 | 43.66336 | 7.21289 | 21 ft | 7 kts | 262° |
| 2026-04-15 11:20 | 43.66333 | 7.21263 | 20 ft | 4 kts | 261° |
| 2026-04-15 11:20 | 43.66328 | 7.21216 | 20 ft | 2 kts | 269° |
| 2026-04-15 11:20 | 43.66339 | 7.21200 | 20 ft | 2 kts | 331° |
| 2026-04-15 11:20 | 43.66354 | 7.21192 | 21 ft | 2 kts | 341° |
| 2026-04-15 11:21 | 43.66369 | 7.21187 | 20 ft | 2 kts | 348° |
| 2026-04-15 11:21 | 43.66383 | 7.21184 | 20 ft | 2 kts | 350° |
| 2026-04-15 11:21 | 43.66395 | 7.21181 | 20 ft | 0 kts | 351° |